sensor_id;sensor_type;location;lat;lon;timestamp;temperature;humidity
25438;DHT22;13364;49.084;9.978;2023-07-31T00:01:46;15.30;83.60
25438;DHT22;13364;49.084;9.978;2023-07-31T00:04:13;15.30;83.90
25438;DHT22;13364;49.084;9.978;2023-07-31T00:06:40;15.30;83.80
25438;DHT22;13364;49.084;9.978;2023-07-31T00:09:08;15.30;83.90
25438;DHT22;13364;49.084;9.978;2023-07-31T00:11:35;15.30;83.90
25438;DHT22;13364;49.084;9.978;2023-07-31T00:14:02;15.20;84.10
25438;DHT22;13364;49.084;9.978;2023-07-31T00:16:29;15.20;84.10
25438;DHT22;13364;49.084;9.978;2023-07-31T00:18:56;15.20;84.40
25438;DHT22;13364;49.084;9.978;2023-07-31T00:21:24;15.10;84.20
25438;DHT22;13364;49.084;9.978;2023-07-31T00:23:51;15.10;84.00
25438;DHT22;13364;49.084;9.978;2023-07-31T00:26:18;15.10;83.90
25438;DHT22;13364;49.084;9.978;2023-07-31T00:28:45;15.10;83.90
25438;DHT22;13364;49.084;9.978;2023-07-31T00:31:13;15.00;84.20
25438;DHT22;13364;49.084;9.978;2023-07-31T00:33:40;15.00;84.50
25438;DHT22;13364;49.084;9.978;2023-07-31T00:36:07;15.00;84.30
25438;DHT22;13364;49.084;9.978;2023-07-31T00:38:34;14.90;83.50
25438;DHT22;13364;49.084;9.978;2023-07-31T00:41:01;14.80;84.00
25438;DHT22;13364;49.084;9.978;2023-07-31T00:43:29;14.80;84.50
25438;DHT22;13364;49.084;9.978;2023-07-31T00:45:56;14.80;84.30
25438;DHT22;13364;49.084;9.978;2023-07-31T00:48:24;14.90;84.20
25438;DHT22;13364;49.084;9.978;2023-07-31T00:50:52;14.80;84.30
25438;DHT22;13364;49.084;9.978;2023-07-31T00:53:20;14.80;84.20
25438;DHT22;13364;49.084;9.978;2023-07-31T00:55:49;14.80;84.30
25438;DHT22;13364;49.084;9.978;2023-07-31T00:58:16;14.70;84.30
25438;DHT22;13364;49.084;9.978;2023-07-31T01:00:43;14.70;84.80
25438;DHT22;13364;49.084;9.978;2023-07-31T01:03:11;14.70;84.40
25438;DHT22;13364;49.084;9.978;2023-07-31T01:05:49;14.70;84.40
25438;DHT22;13364;49.084;9.978;2023-07-31T01:11:06;14.70;84.40
25438;DHT22;13364;49.084;9.978;2023-07-31T01:13:35;14.60;84.50
25438;DHT22;13364;49.084;9.978;2023-07-31T01:16:02;14.60;84.60
25438;DHT22;13364;49.084;9.978;2023-07-31T01:18:30;14.50;84.80
25438;DHT22;13364;49.084;9.978;2023-07-31T01:26:46;14.40;85.20
25438;DHT22;13364;49.084;9.978;2023-07-31T01:29:20;14.40;85.60
25438;DHT22;13364;49.084;9.978;2023-07-31T01:31:50;14.50;85.60
25438;DHT22;13364;49.084;9.978;2023-07-31T01:34:20;14.50;85.50
25438;DHT22;13364;49.084;9.978;2023-07-31T01:36:48;14.50;85.20
25438;DHT22;13364;49.084;9.978;2023-07-31T01:39:16;14.40;85.20
25438;DHT22;13364;49.084;9.978;2023-07-31T01:41:43;14.40;85.40
25438;DHT22;13364;49.084;9.978;2023-07-31T01:44:10;14.30;85.60
25438;DHT22;13364;49.084;9.978;2023-07-31T01:46:37;14.30;85.70
25438;DHT22;13364;49.084;9.978;2023-07-31T01:49:05;14.20;85.80
25438;DHT22;13364;49.084;9.978;2023-07-31T01:51:33;14.20;86.00
25438;DHT22;13364;49.084;9.978;2023-07-31T01:57:19;14.10;86.30
25438;DHT22;13364;49.084;9.978;2023-07-31T01:59:46;14.10;86.40
25438;DHT22;13364;49.084;9.978;2023-07-31T02:02:13;14.10;86.30
25438;DHT22;13364;49.084;9.978;2023-07-31T02:04:40;14.10;86.40
25438;DHT22;13364;49.084;9.978;2023-07-31T02:07:07;14.10;86.40
25438;DHT22;13364;49.084;9.978;2023-07-31T02:09:34;14.00;86.60
25438;DHT22;13364;49.084;9.978;2023-07-31T02:12:02;14.00;86.60
25438;DHT22;13364;49.084;9.978;2023-07-31T02:14:29;14.10;86.50
25438;DHT22;13364;49.084;9.978;2023-07-31T02:16:56;14.10;86.60
25438;DHT22;13364;49.084;9.978;2023-07-31T02:19:24;14.20;87.00
25438;DHT22;13364;49.084;9.978;2023-07-31T02:21:52;14.30;87.90
25438;DHT22;13364;49.084;9.978;2023-07-31T02:24:19;14.40;86.90
25438;DHT22;13364;49.084;9.978;2023-07-31T02:26:46;14.40;85.50
25438;DHT22;13364;49.084;9.978;2023-07-31T02:29:13;14.40;85.30
25438;DHT22;13364;49.084;9.978;2023-07-31T02:31:40;14.40;85.40
25438;DHT22;13364;49.084;9.978;2023-07-31T02:34:07;14.40;85.60
25438;DHT22;13364;49.084;9.978;2023-07-31T02:36:34;14.40;86.30
25438;DHT22;13364;49.084;9.978;2023-07-31T02:39:01;14.50;85.70
25438;DHT22;13364;49.084;9.978;2023-07-31T02:41:28;14.50;85.50
25438;DHT22;13364;49.084;9.978;2023-07-31T02:43:55;14.50;85.30
25438;DHT22;13364;49.084;9.978;2023-07-31T02:46:22;14.40;85.30
25438;DHT22;13364;49.084;9.978;2023-07-31T02:48:51;14.40;85.50
25438;DHT22;13364;49.084;9.978;2023-07-31T02:51:19;14.30;85.60
25438;DHT22;13364;49.084;9.978;2023-07-31T02:53:48;14.20;85.90
25438;DHT22;13364;49.084;9.978;2023-07-31T02:56:15;14.20;86.30
25438;DHT22;13364;49.084;9.978;2023-07-31T02:58:42;14.10;86.40
25438;DHT22;13364;49.084;9.978;2023-07-31T03:01:09;14.10;86.70
25438;DHT22;13364;49.084;9.978;2023-07-31T03:03:36;14.00;86.80
25438;DHT22;13364;49.084;9.978;2023-07-31T03:06:03;14.00;87.20
25438;DHT22;13364;49.084;9.978;2023-07-31T03:08:31;14.00;87.20
25438;DHT22;13364;49.084;9.978;2023-07-31T03:10:58;14.00;87.00
25438;DHT22;13364;49.084;9.978;2023-07-31T03:13:25;14.00;87.00
25438;DHT22;13364;49.084;9.978;2023-07-31T03:15:52;14.00;86.90
25438;DHT22;13364;49.084;9.978;2023-07-31T03:18:19;14.00;87.00
25438;DHT22;13364;49.084;9.978;2023-07-31T03:20:46;14.10;86.90
25438;DHT22;13364;49.084;9.978;2023-07-31T03:23:13;14.00;86.80
25438;DHT22;13364;49.084;9.978;2023-07-31T03:25:54;14.10;86.90
25438;DHT22;13364;49.084;9.978;2023-07-31T03:28:22;14.10;86.90
25438;DHT22;13364;49.084;9.978;2023-07-31T03:30:49;14.10;86.80
25438;DHT22;13364;49.084;9.978;2023-07-31T03:33:16;14.10;87.00
25438;DHT22;13364;49.084;9.978;2023-07-31T03:35:43;14.00;87.10
25438;DHT22;13364;49.084;9.978;2023-07-31T03:38:10;14.00;87.10
25438;DHT22;13364;49.084;9.978;2023-07-31T03:40:38;14.00;87.20
25438;DHT22;13364;49.084;9.978;2023-07-31T03:43:05;14.00;87.30
25438;DHT22;13364;49.084;9.978;2023-07-31T03:45:32;14.10;87.30
25438;DHT22;13364;49.084;9.978;2023-07-31T03:48:00;14.10;87.30
25438;DHT22;13364;49.084;9.978;2023-07-31T03:50:27;14.10;87.20
25438;DHT22;13364;49.084;9.978;2023-07-31T03:52:54;14.10;87.40
25438;DHT22;13364;49.084;9.978;2023-07-31T03:55:21;14.10;87.30
25438;DHT22;13364;49.084;9.978;2023-07-31T03:57:50;14.10;87.20
25438;DHT22;13364;49.084;9.978;2023-07-31T04:00:18;14.10;87.20
25438;DHT22;13364;49.084;9.978;2023-07-31T04:02:45;14.10;87.20
25438;DHT22;13364;49.084;9.978;2023-07-31T04:05:12;14.10;87.30
25438;DHT22;13364;49.084;9.978;2023-07-31T04:07:39;14.00;87.50
25438;DHT22;13364;49.084;9.978;2023-07-31T04:10:06;14.00;87.60
25438;DHT22;13364;49.084;9.978;2023-07-31T04:12:36;14.00;87.70
25438;DHT22;13364;49.084;9.978;2023-07-31T04:15:03;13.90;88.00
25438;DHT22;13364;49.084;9.978;2023-07-31T04:17:30;13.90;88.00
25438;DHT22;13364;49.084;9.978;2023-07-31T04:19:57;13.90;88.10
25438;DHT22;13364;49.084;9.978;2023-07-31T04:22:24;13.90;88.10
25438;DHT22;13364;49.084;9.978;2023-07-31T04:24:51;14.00;88.10
25438;DHT22;13364;49.084;9.978;2023-07-31T04:27:18;14.00;88.10
25438;DHT22;13364;49.084;9.978;2023-07-31T04:29:45;14.00;88.30
25438;DHT22;13364;49.084;9.978;2023-07-31T04:32:14;14.00;88.30
25438;DHT22;13364;49.084;9.978;2023-07-31T04:34:43;14.00;88.20
25438;DHT22;13364;49.084;9.978;2023-07-31T04:37:10;14.10;88.00
25438;DHT22;13364;49.084;9.978;2023-07-31T04:39:38;14.10;87.90
25438;DHT22;13364;49.084;9.978;2023-07-31T04:42:06;14.20;87.70
25438;DHT22;13364;49.084;9.978;2023-07-31T04:44:33;14.20;87.60
25438;DHT22;13364;49.084;9.978;2023-07-31T04:47:00;14.30;87.60
25438;DHT22;13364;49.084;9.978;2023-07-31T04:49:27;14.30;86.90
25438;DHT22;13364;49.084;9.978;2023-07-31T04:51:54;14.40;86.70
25438;DHT22;13364;49.084;9.978;2023-07-31T04:54:21;14.40;86.60
25438;DHT22;13364;49.084;9.978;2023-07-31T04:56:52;14.40;86.60
25438;DHT22;13364;49.084;9.978;2023-07-31T04:59:19;14.40;86.60
25438;DHT22;13364;49.084;9.978;2023-07-31T05:01:46;14.50;86.40
25438;DHT22;13364;49.084;9.978;2023-07-31T05:04:14;14.50;86.50
25438;DHT22;13364;49.084;9.978;2023-07-31T05:06:42;14.50;86.70
25438;DHT22;13364;49.084;9.978;2023-07-31T05:09:09;14.50;86.60
25438;DHT22;13364;49.084;9.978;2023-07-31T05:11:36;14.50;86.60
25438;DHT22;13364;49.084;9.978;2023-07-31T05:14:03;14.50;86.80
25438;DHT22;13364;49.084;9.978;2023-07-31T05:16:30;14.40;86.80
25438;DHT22;13364;49.084;9.978;2023-07-31T05:18:57;14.40;87.00
25438;DHT22;13364;49.084;9.978;2023-07-31T05:21:24;14.40;87.10
25438;DHT22;13364;49.084;9.978;2023-07-31T05:23:51;14.40;87.10
25438;DHT22;13364;49.084;9.978;2023-07-31T05:26:18;14.40;87.10
25438;DHT22;13364;49.084;9.978;2023-07-31T05:28:45;14.50;87.20
25438;DHT22;13364;49.084;9.978;2023-07-31T05:31:13;14.50;87.20
25438;DHT22;13364;49.084;9.978;2023-07-31T05:33:40;14.50;87.20
25438;DHT22;13364;49.084;9.978;2023-07-31T05:36:07;14.60;86.80
25438;DHT22;13364;49.084;9.978;2023-07-31T05:38:34;14.70;86.50
25438;DHT22;13364;49.084;9.978;2023-07-31T05:41:01;14.70;86.20
25438;DHT22;13364;49.084;9.978;2023-07-31T05:43:28;14.70;85.70
25438;DHT22;13364;49.084;9.978;2023-07-31T05:45:55;14.80;85.70
25438;DHT22;13364;49.084;9.978;2023-07-31T05:48:22;14.80;85.80
25438;DHT22;13364;49.084;9.978;2023-07-31T05:50:50;14.80;85.60
25438;DHT22;13364;49.084;9.978;2023-07-31T05:53:17;14.80;85.50
25438;DHT22;13364;49.084;9.978;2023-07-31T05:55:44;14.80;85.50
25438;DHT22;13364;49.084;9.978;2023-07-31T05:58:11;14.70;85.50
25438;DHT22;13364;49.084;9.978;2023-07-31T06:00:38;14.70;85.50
25438;DHT22;13364;49.084;9.978;2023-07-31T06:03:05;14.70;85.50
25438;DHT22;13364;49.084;9.978;2023-07-31T06:05:32;14.70;85.90
25438;DHT22;13364;49.084;9.978;2023-07-31T06:07:59;14.70;85.80
25438;DHT22;13364;49.084;9.978;2023-07-31T06:10:26;14.70;85.70
25438;DHT22;13364;49.084;9.978;2023-07-31T06:12:53;14.80;86.00
25438;DHT22;13364;49.084;9.978;2023-07-31T06:15:21;14.80;86.00
25438;DHT22;13364;49.084;9.978;2023-07-31T06:17:48;14.80;85.70
25438;DHT22;13364;49.084;9.978;2023-07-31T06:20:15;14.90;85.50
25438;DHT22;13364;49.084;9.978;2023-07-31T06:22:42;14.90;85.90
25438;DHT22;13364;49.084;9.978;2023-07-31T06:25:09;15.00;85.40
25438;DHT22;13364;49.084;9.978;2023-07-31T06:27:40;15.00;85.20
25438;DHT22;13364;49.084;9.978;2023-07-31T06:30:08;15.00;85.10
25438;DHT22;13364;49.084;9.978;2023-07-31T06:32:35;15.00;85.20
25438;DHT22;13364;49.084;9.978;2023-07-31T06:35:03;15.10;85.00
25438;DHT22;13364;49.084;9.978;2023-07-31T06:37:30;15.10;84.90
25438;DHT22;13364;49.084;9.978;2023-07-31T06:39:57;15.20;85.40
25438;DHT22;13364;49.084;9.978;2023-07-31T06:42:24;15.30;85.10
25438;DHT22;13364;49.084;9.978;2023-07-31T06:44:52;15.40;84.60
25438;DHT22;13364;49.084;9.978;2023-07-31T06:47:19;15.60;84.30
25438;DHT22;13364;49.084;9.978;2023-07-31T06:49:46;15.70;83.00
25438;DHT22;13364;49.084;9.978;2023-07-31T06:52:13;15.80;82.70
25438;DHT22;13364;49.084;9.978;2023-07-31T06:54:40;15.90;82.20
25438;DHT22;13364;49.084;9.978;2023-07-31T06:57:07;16.00;82.40
25438;DHT22;13364;49.084;9.978;2023-07-31T06:59:34;16.00;82.70
25438;DHT22;13364;49.084;9.978;2023-07-31T07:02:01;16.10;82.80
25438;DHT22;13364;49.084;9.978;2023-07-31T07:04:32;16.30;82.30
25438;DHT22;13364;49.084;9.978;2023-07-31T07:06:59;16.40;81.70
25438;DHT22;13364;49.084;9.978;2023-07-31T07:09:26;16.40;81.90
25438;DHT22;13364;49.084;9.978;2023-07-31T07:11:53;16.60;82.20
25438;DHT22;13364;49.084;9.978;2023-07-31T07:14:20;16.70;81.40
25438;DHT22;13364;49.084;9.978;2023-07-31T07:16:51;16.80;81.90
25438;DHT22;13364;49.084;9.978;2023-07-31T07:19:18;17.00;80.40
25438;DHT22;13364;49.084;9.978;2023-07-31T07:21:45;17.10;80.30
25438;DHT22;13364;49.084;9.978;2023-07-31T07:24:12;17.20;79.40
25438;DHT22;13364;49.084;9.978;2023-07-31T07:26:39;17.40;79.90
25438;DHT22;13364;49.084;9.978;2023-07-31T07:29:08;17.50;78.90
25438;DHT22;13364;49.084;9.978;2023-07-31T07:31:37;17.70;79.70
25438;DHT22;13364;49.084;9.978;2023-07-31T07:34:04;17.70;77.80
25438;DHT22;13364;49.084;9.978;2023-07-31T07:36:31;17.80;78.00
25438;DHT22;13364;49.084;9.978;2023-07-31T07:38:59;17.90;79.60
25438;DHT22;13364;49.084;9.978;2023-07-31T07:41:26;18.00;77.80
25438;DHT22;13364;49.084;9.978;2023-07-31T07:43:53;18.20;77.60
25438;DHT22;13364;49.084;9.978;2023-07-31T07:46:20;18.20;76.90
25438;DHT22;13364;49.084;9.978;2023-07-31T07:48:47;18.30;77.10
25438;DHT22;13364;49.084;9.978;2023-07-31T07:51:14;18.40;77.00
25438;DHT22;13364;49.084;9.978;2023-07-31T07:53:41;18.50;77.00
25438;DHT22;13364;49.084;9.978;2023-07-31T07:56:09;18.60;76.60
25438;DHT22;13364;49.084;9.978;2023-07-31T07:58:36;18.50;75.10
25438;DHT22;13364;49.084;9.978;2023-07-31T08:01:03;18.50;76.50
25438;DHT22;13364;49.084;9.978;2023-07-31T08:03:30;18.50;75.30
25438;DHT22;13364;49.084;9.978;2023-07-31T08:06:01;18.60;74.60
25438;DHT22;13364;49.084;9.978;2023-07-31T08:08:28;18.70;75.20
25438;DHT22;13364;49.084;9.978;2023-07-31T08:10:55;18.70;75.50
25438;DHT22;13364;49.084;9.978;2023-07-31T08:13:22;18.70;74.20
25438;DHT22;13364;49.084;9.978;2023-07-31T08:15:49;18.70;75.30
25438;DHT22;13364;49.084;9.978;2023-07-31T08:18:16;18.90;76.00
25438;DHT22;13364;49.084;9.978;2023-07-31T08:20:44;19.00;75.30
25438;DHT22;13364;49.084;9.978;2023-07-31T08:23:12;19.10;74.70
25438;DHT22;13364;49.084;9.978;2023-07-31T08:25:39;19.20;72.30
25438;DHT22;13364;49.084;9.978;2023-07-31T08:28:06;19.30;73.30
25438;DHT22;13364;49.084;9.978;2023-07-31T08:30:33;19.40;73.40
25438;DHT22;13364;49.084;9.978;2023-07-31T08:33:00;19.50;71.70
25438;DHT22;13364;49.084;9.978;2023-07-31T08:35:28;19.50;71.20
25438;DHT22;13364;49.084;9.978;2023-07-31T08:37:55;19.60;72.60
25438;DHT22;13364;49.084;9.978;2023-07-31T08:40:22;19.70;71.50
25438;DHT22;13364;49.084;9.978;2023-07-31T08:42:52;19.90;72.20
25438;DHT22;13364;49.084;9.978;2023-07-31T08:45:20;20.00;72.40
25438;DHT22;13364;49.084;9.978;2023-07-31T08:47:50;20.10;71.70
25438;DHT22;13364;49.084;9.978;2023-07-31T08:50:19;20.20;70.50
25438;DHT22;13364;49.084;9.978;2023-07-31T09:00:03;20.60;67.50
25438;DHT22;13364;49.084;9.978;2023-07-31T09:05:19;20.90;67.30
25438;DHT22;13364;49.084;9.978;2023-07-31T09:07:50;21.00;66.50
25438;DHT22;13364;49.084;9.978;2023-07-31T09:10:18;21.10;66.40
25438;DHT22;13364;49.084;9.978;2023-07-31T09:12:45;21.20;66.20
25438;DHT22;13364;49.084;9.978;2023-07-31T09:15:13;21.20;64.70
25438;DHT22;13364;49.084;9.978;2023-07-31T09:18:02;21.20;65.40
25438;DHT22;13364;49.084;9.978;2023-07-31T09:20:29;21.20;64.40
25438;DHT22;13364;49.084;9.978;2023-07-31T09:22:56;21.20;65.40
25438;DHT22;13364;49.084;9.978;2023-07-31T09:25:25;21.20;64.50
25438;DHT22;13364;49.084;9.978;2023-07-31T09:28:00;21.30;65.20
25438;DHT22;13364;49.084;9.978;2023-07-31T09:30:27;21.40;65.20
25438;DHT22;13364;49.084;9.978;2023-07-31T09:33:03;21.50;64.20
25438;DHT22;13364;49.084;9.978;2023-07-31T09:35:32;21.60;64.70
25438;DHT22;13364;49.084;9.978;2023-07-31T09:38:00;21.80;65.30
25438;DHT22;13364;49.084;9.978;2023-07-31T09:40:31;22.00;63.90
25438;DHT22;13364;49.084;9.978;2023-07-31T09:43:01;22.10;63.00
25438;DHT22;13364;49.084;9.978;2023-07-31T09:45:30;22.30;61.70
25438;DHT22;13364;49.084;9.978;2023-07-31T09:48:11;22.40;62.30
25438;DHT22;13364;49.084;9.978;2023-07-31T09:50:42;22.60;61.20
25438;DHT22;13364;49.084;9.978;2023-07-31T09:53:09;22.80;62.70
25438;DHT22;13364;49.084;9.978;2023-07-31T09:55:38;23.00;61.70
25438;DHT22;13364;49.084;9.978;2023-07-31T09:58:10;23.20;63.80
25438;DHT22;13364;49.084;9.978;2023-07-31T10:00:38;23.30;63.70
25438;DHT22;13364;49.084;9.978;2023-07-31T10:03:10;23.50;60.40
25438;DHT22;13364;49.084;9.978;2023-07-31T10:05:38;23.50;58.20
25438;DHT22;13364;49.084;9.978;2023-07-31T10:08:08;23.50;58.60
25438;DHT22;13364;49.084;9.978;2023-07-31T10:10:37;23.30;57.50
25438;DHT22;13364;49.084;9.978;2023-07-31T10:13:05;23.30;57.80
25438;DHT22;13364;49.084;9.978;2023-07-31T10:15:33;23.20;57.90
25438;DHT22;13364;49.084;9.978;2023-07-31T10:18:02;23.10;58.40
25438;DHT22;13364;49.084;9.978;2023-07-31T10:20:29;23.00;57.80
25438;DHT22;13364;49.084;9.978;2023-07-31T10:22:57;22.90;59.50
25438;DHT22;13364;49.084;9.978;2023-07-31T10:25:32;22.80;59.40
25438;DHT22;13364;49.084;9.978;2023-07-31T10:28:36;22.80;59.60
25438;DHT22;13364;49.084;9.978;2023-07-31T10:34:11;22.90;59.00
25438;DHT22;13364;49.084;9.978;2023-07-31T10:36:39;22.90;58.70
25438;DHT22;13364;49.084;9.978;2023-07-31T10:39:33;22.90;57.90
25438;DHT22;13364;49.084;9.978;2023-07-31T10:42:10;22.90;60.50
25438;DHT22;13364;49.084;9.978;2023-07-31T10:44:37;22.90;60.20
25438;DHT22;13364;49.084;9.978;2023-07-31T10:47:04;23.00;59.80
25438;DHT22;13364;49.084;9.978;2023-07-31T10:49:32;23.00;59.50
25438;DHT22;13364;49.084;9.978;2023-07-31T10:51:59;23.10;59.00
25438;DHT22;13364;49.084;9.978;2023-07-31T10:54:27;23.10;59.10
25438;DHT22;13364;49.084;9.978;2023-07-31T10:56:54;23.10;57.90
25438;DHT22;13364;49.084;9.978;2023-07-31T10:59:26;23.20;60.30
25438;DHT22;13364;49.084;9.978;2023-07-31T11:01:56;23.20;59.60
25438;DHT22;13364;49.084;9.978;2023-07-31T11:04:29;23.30;59.30
25438;DHT22;13364;49.084;9.978;2023-07-31T11:07:00;23.40;59.00
25438;DHT22;13364;49.084;9.978;2023-07-31T11:09:31;23.50;58.60
25438;DHT22;13364;49.084;9.978;2023-07-31T11:11:59;23.60;56.30
25438;DHT22;13364;49.084;9.978;2023-07-31T11:14:27;23.60;56.90
25438;DHT22;13364;49.084;9.978;2023-07-31T11:16:54;23.60;57.90
25438;DHT22;13364;49.084;9.978;2023-07-31T11:19:24;23.50;57.40
25438;DHT22;13364;49.084;9.978;2023-07-31T11:21:52;23.40;56.80
25438;DHT22;13364;49.084;9.978;2023-07-31T11:24:20;23.30;61.80
25438;DHT22;13364;49.084;9.978;2023-07-31T11:26:52;23.20;58.50
25438;DHT22;13364;49.084;9.978;2023-07-31T11:29:20;23.20;58.90
25438;DHT22;13364;49.084;9.978;2023-07-31T11:31:47;23.20;59.90
25438;DHT22;13364;49.084;9.978;2023-07-31T11:34:16;23.20;59.20
25438;DHT22;13364;49.084;9.978;2023-07-31T11:36:54;23.10;59.20
25438;DHT22;13364;49.084;9.978;2023-07-31T11:39:22;23.20;60.20
25438;DHT22;13364;49.084;9.978;2023-07-31T11:41:49;23.30;58.40
25438;DHT22;13364;49.084;9.978;2023-07-31T11:44:16;23.30;59.80
25438;DHT22;13364;49.084;9.978;2023-07-31T11:51:14;23.40;57.80
25438;DHT22;13364;49.084;9.978;2023-07-31T11:53:50;23.50;58.70
25438;DHT22;13364;49.084;9.978;2023-07-31T11:56:19;23.60;58.20
25438;DHT22;13364;49.084;9.978;2023-07-31T11:58:57;23.60;57.50
25438;DHT22;13364;49.084;9.978;2023-07-31T12:01:26;23.50;57.30
25438;DHT22;13364;49.084;9.978;2023-07-31T12:03:55;23.40;57.40
25438;DHT22;13364;49.084;9.978;2023-07-31T12:06:33;23.30;58.50
25438;DHT22;13364;49.084;9.978;2023-07-31T12:09:02;23.30;58.70
25438;DHT22;13364;49.084;9.978;2023-07-31T12:11:30;23.40;60.50
25438;DHT22;13364;49.084;9.978;2023-07-31T12:13:57;23.30;58.10
25438;DHT22;13364;49.084;9.978;2023-07-31T12:16:26;23.30;57.00
25438;DHT22;13364;49.084;9.978;2023-07-31T12:18:55;23.20;57.40
25438;DHT22;13364;49.084;9.978;2023-07-31T12:21:22;23.10;57.50
25438;DHT22;13364;49.084;9.978;2023-07-31T12:23:51;23.20;58.90
25438;DHT22;13364;49.084;9.978;2023-07-31T12:26:21;23.20;57.60
25438;DHT22;13364;49.084;9.978;2023-07-31T12:28:50;23.30;57.00
25438;DHT22;13364;49.084;9.978;2023-07-31T12:31:20;23.30;57.50
25438;DHT22;13364;49.084;9.978;2023-07-31T12:33:49;23.40;59.20
25438;DHT22;13364;49.084;9.978;2023-07-31T12:36:20;23.60;56.80
25438;DHT22;13364;49.084;9.978;2023-07-31T12:38:52;23.80;57.20
25438;DHT22;13364;49.084;9.978;2023-07-31T12:41:30;23.90;57.70
25438;DHT22;13364;49.084;9.978;2023-07-31T12:43:57;24.00;55.40
25438;DHT22;13364;49.084;9.978;2023-07-31T12:46:24;24.00;56.50
25438;DHT22;13364;49.084;9.978;2023-07-31T12:48:52;24.20;59.70
25438;DHT22;13364;49.084;9.978;2023-07-31T12:51:50;24.50;58.20
25438;DHT22;13364;49.084;9.978;2023-07-31T12:54:17;24.60;54.80
25438;DHT22;13364;49.084;9.978;2023-07-31T12:56:44;24.70;54.20
25438;DHT22;13364;49.084;9.978;2023-07-31T12:59:11;24.90;54.50
25438;DHT22;13364;49.084;9.978;2023-07-31T13:01:39;25.10;55.50
25438;DHT22;13364;49.084;9.978;2023-07-31T13:07:32;25.40;54.40
25438;DHT22;13364;49.084;9.978;2023-07-31T13:10:00;25.50;53.80
25438;DHT22;13364;49.084;9.978;2023-07-31T13:12:27;25.70;52.70
25438;DHT22;13364;49.084;9.978;2023-07-31T13:15:08;25.60;52.00
25438;DHT22;13364;49.084;9.978;2023-07-31T13:17:36;25.70;52.60
25438;DHT22;13364;49.084;9.978;2023-07-31T13:20:04;25.70;53.30
25438;DHT22;13364;49.084;9.978;2023-07-31T13:22:31;25.80;51.10
25438;DHT22;13364;49.084;9.978;2023-07-31T13:24:59;25.60;50.70
25438;DHT22;13364;49.084;9.978;2023-07-31T13:27:31;25.40;52.30
25438;DHT22;13364;49.084;9.978;2023-07-31T13:29:58;25.20;53.20
25438;DHT22;13364;49.084;9.978;2023-07-31T13:32:25;25.10;53.10
25438;DHT22;13364;49.084;9.978;2023-07-31T13:34:53;24.90;53.40
25438;DHT22;13364;49.084;9.978;2023-07-31T13:37:20;24.90;55.60
25438;DHT22;13364;49.084;9.978;2023-07-31T13:39:47;24.90;55.20
25438;DHT22;13364;49.084;9.978;2023-07-31T13:42:15;25.00;53.20
25438;DHT22;13364;49.084;9.978;2023-07-31T13:44:42;25.00;53.90
25438;DHT22;13364;49.084;9.978;2023-07-31T13:47:09;25.00;53.50
25438;DHT22;13364;49.084;9.978;2023-07-31T13:49:37;25.00;56.00
25438;DHT22;13364;49.084;9.978;2023-07-31T13:52:31;25.10;55.20
25438;DHT22;13364;49.084;9.978;2023-07-31T13:54:59;25.10;53.10
25438;DHT22;13364;49.084;9.978;2023-07-31T13:57:26;25.00;53.90
25438;DHT22;13364;49.084;9.978;2023-07-31T13:59:53;25.00;54.10
25438;DHT22;13364;49.084;9.978;2023-07-31T14:02:46;25.00;54.70
25438;DHT22;13364;49.084;9.978;2023-07-31T14:05:14;24.90;53.40
25438;DHT22;13364;49.084;9.978;2023-07-31T14:07:41;24.80;52.80
25438;DHT22;13364;49.084;9.978;2023-07-31T14:10:08;24.60;56.10
25438;DHT22;13364;49.084;9.978;2023-07-31T14:12:35;24.60;56.00
25438;DHT22;13364;49.084;9.978;2023-07-31T14:15:09;24.60;54.80
25438;DHT22;13364;49.084;9.978;2023-07-31T14:17:37;24.50;59.00
25438;DHT22;13364;49.084;9.978;2023-07-31T14:20:05;24.40;55.80
25438;DHT22;13364;49.084;9.978;2023-07-31T14:22:33;24.40;57.60
25438;DHT22;13364;49.084;9.978;2023-07-31T14:25:01;24.30;56.80
25438;DHT22;13364;49.084;9.978;2023-07-31T14:27:28;24.30;56.80
25438;DHT22;13364;49.084;9.978;2023-07-31T14:29:56;24.30;56.90
25438;DHT22;13364;49.084;9.978;2023-07-31T14:32:23;24.30;57.90
25438;DHT22;13364;49.084;9.978;2023-07-31T14:34:52;24.30;58.20
25438;DHT22;13364;49.084;9.978;2023-07-31T14:37:48;24.30;56.80
25438;DHT22;13364;49.084;9.978;2023-07-31T14:40:15;24.40;56.40
25438;DHT22;13364;49.084;9.978;2023-07-31T14:42:42;24.40;57.20
25438;DHT22;13364;49.084;9.978;2023-07-31T14:45:09;24.40;55.80
25438;DHT22;13364;49.084;9.978;2023-07-31T14:47:37;24.30;55.60
25438;DHT22;13364;49.084;9.978;2023-07-31T14:50:04;24.30;56.60
25438;DHT22;13364;49.084;9.978;2023-07-31T14:52:32;24.20;55.00
25438;DHT22;13364;49.084;9.978;2023-07-31T14:54:59;24.20;56.00
25438;DHT22;13364;49.084;9.978;2023-07-31T14:57:26;24.20;57.20
25438;DHT22;13364;49.084;9.978;2023-07-31T14:59:53;24.10;57.10
25438;DHT22;13364;49.084;9.978;2023-07-31T15:02:20;24.10;56.70
25438;DHT22;13364;49.084;9.978;2023-07-31T15:04:51;24.00;56.40
25438;DHT22;13364;49.084;9.978;2023-07-31T15:07:19;23.90;58.20
25438;DHT22;13364;49.084;9.978;2023-07-31T15:09:46;23.80;57.40
25438;DHT22;13364;49.084;9.978;2023-07-31T15:12:13;23.80;56.60
25438;DHT22;13364;49.084;9.978;2023-07-31T15:14:41;23.70;57.70
25438;DHT22;13364;49.084;9.978;2023-07-31T15:17:08;23.80;59.70
25438;DHT22;13364;49.084;9.978;2023-07-31T15:19:35;23.90;60.30
25438;DHT22;13364;49.084;9.978;2023-07-31T15:22:03;24.00;58.10
25438;DHT22;13364;49.084;9.978;2023-07-31T15:24:41;24.10;58.40
25438;DHT22;13364;49.084;9.978;2023-07-31T15:27:12;24.10;58.80
25438;DHT22;13364;49.084;9.978;2023-07-31T15:29:39;24.20;58.60
25438;DHT22;13364;49.084;9.978;2023-07-31T15:32:06;24.20;58.70
25438;DHT22;13364;49.084;9.978;2023-07-31T15:34:33;24.20;56.80
25438;DHT22;13364;49.084;9.978;2023-07-31T15:37:01;24.10;57.70
25438;DHT22;13364;49.084;9.978;2023-07-31T15:39:28;24.10;57.60
25438;DHT22;13364;49.084;9.978;2023-07-31T15:41:55;24.10;57.30
25438;DHT22;13364;49.084;9.978;2023-07-31T15:44:22;24.00;57.30
25438;DHT22;13364;49.084;9.978;2023-07-31T15:46:49;24.00;58.90
25438;DHT22;13364;49.084;9.978;2023-07-31T15:49:16;23.90;56.80
25438;DHT22;13364;49.084;9.978;2023-07-31T15:51:43;23.80;57.90
25438;DHT22;13364;49.084;9.978;2023-07-31T15:54:10;23.80;57.40
25438;DHT22;13364;49.084;9.978;2023-07-31T15:56:37;23.80;57.20
25438;DHT22;13364;49.084;9.978;2023-07-31T15:59:05;23.70;56.50
25438;DHT22;13364;49.084;9.978;2023-07-31T16:01:32;23.70;57.50
25438;DHT22;13364;49.084;9.978;2023-07-31T16:03:59;23.60;58.00
25438;DHT22;13364;49.084;9.978;2023-07-31T16:06:27;23.50;57.40
25438;DHT22;13364;49.084;9.978;2023-07-31T16:08:54;23.50;58.10
25438;DHT22;13364;49.084;9.978;2023-07-31T16:11:22;23.60;58.90